createdAt,value
2023-03-01T00:01:04.372Z,83.80
2023-03-01T00:03:54.093Z,88.50
2023-03-01T00:06:47.126Z,80.70
2023-03-01T00:09:39.282Z,80.00
2023-03-01T00:12:28.827Z,80.47
2023-03-01T00:15:19.896Z,86.03
2023-03-01T00:18:09.215Z,80.17
2023-03-01T00:20:58.149Z,80.90
2023-03-01T00:23:46.791Z,83.83
2023-03-01T00:26:36.897Z,85.30
2023-03-01T00:29:25.998Z,86.37
2023-03-01T00:32:14.695Z,86.57
2023-03-01T00:35:03.623Z,75.07
2023-03-01T00:37:58.683Z,76.20
2023-03-01T00:40:47.322Z,77.73
2023-03-01T00:43:38.763Z,89.53
2023-03-01T00:46:30.431Z,81.53
2023-03-01T00:49:25.260Z,86.87
2023-03-01T00:52:14.063Z,80.67
2023-03-01T00:55:02.891Z,87.83
2023-03-01T00:57:51.838Z,83.40
2023-03-01T01:00:41.878Z,80.17
2023-03-01T01:03:30.762Z,72.97
2023-03-01T01:06:22.468Z,77.23
2023-03-01T01:09:18.456Z,77.20
2023-03-01T01:12:07.970Z,77.40
2023-03-01T01:14:56.721Z,76.10
2023-03-01T01:17:46.701Z,76.20
2023-03-01T01:20:36.943Z,71.17
2023-03-01T01:23:25.874Z,80.07
2023-03-01T01:26:16.988Z,84.30
2023-03-01T01:29:07.380Z,75.23
2023-03-01T01:31:56.157Z,72.30
2023-03-01T01:34:47.621Z,74.77
2023-03-01T01:37:36.322Z,72.87
2023-03-01T01:40:25.061Z,69.93
2023-03-01T01:43:21.728Z,73.03
2023-03-01T01:46:29.959Z,71.93
2023-03-01T01:49:27.102Z,70.80
2023-03-01T01:52:26.492Z,68.97
2023-03-01T01:55:19.982Z,72.70
2023-03-01T01:58:13.164Z,73.97
2023-03-01T02:01:02.751Z,75.57
2023-03-01T02:03:51.738Z,67.23
2023-03-01T02:06:44.932Z,66.67
2023-03-01T02:09:36.554Z,67.23
2023-03-01T02:12:27.780Z,73.53
2023-03-01T02:15:17.891Z,68.60
2023-03-01T02:18:07.662Z,70.60
2023-03-01T02:21:10.833Z,71.50
2023-03-01T02:24:01.335Z,71.47
2023-03-01T02:26:55.816Z,73.07
2023-03-01T02:29:45.891Z,76.93
2023-03-01T02:32:35.249Z,68.57
2023-03-01T02:35:24.201Z,74.40
2023-03-01T02:38:12.924Z,71.67
2023-03-01T02:41:04.184Z,72.43
2023-03-01T02:43:52.958Z,73.37
2023-03-01T02:46:47.918Z,76.87
2023-03-01T02:49:38.967Z,75.87
2023-03-01T02:52:43.241Z,76.60
2023-03-01T02:55:32.176Z,74.47
2023-03-01T02:58:22.003Z,82.27
2023-03-01T03:01:11.048Z,74.17
2023-03-01T03:04:02.819Z,71.83
2023-03-01T03:06:53.744Z,78.40
2023-03-01T03:09:42.674Z,76.20
2023-03-01T03:12:36.163Z,74.73
2023-03-01T03:15:25.797Z,78.27
2023-03-01T03:18:17.101Z,74.13
2023-03-01T03:21:11.593Z,75.40
2023-03-01T03:24:00.397Z,74.43
2023-03-01T03:26:49.404Z,73.70
2023-03-01T03:29:38.416Z,71.27
2023-03-01T03:32:27.090Z,78.13
2023-03-01T03:35:15.833Z,75.37
2023-03-01T03:38:10.355Z,74.53
2023-03-01T03:41:04.463Z,72.00
2023-03-01T03:43:53.220Z,76.10
2023-03-01T03:46:41.940Z,68.30
2023-03-01T03:49:31.036Z,69.47
2023-03-01T03:52:19.711Z,68.97
2023-03-01T03:55:11.766Z,72.03
2023-03-01T03:58:03.434Z,79.13
2023-03-01T04:00:54.119Z,77.93
2023-03-01T04:03:47.615Z,77.13
2023-03-01T04:06:36.318Z,74.17
2023-03-01T04:09:24.968Z,74.30
2023-03-01T04:12:15.291Z,72.47
2023-03-01T04:15:14.132Z,75.20
2023-03-01T04:18:03.950Z,75.33
2023-03-01T04:20:56.468Z,73.37
2023-03-01T04:23:45.608Z,74.87
2023-03-01T04:26:34.853Z,75.17
2023-03-01T04:29:24.968Z,74.50
2023-03-01T04:32:17.420Z,70.00
2023-03-01T04:35:06.620Z,73.43
2023-03-01T04:37:55.339Z,74.10
2023-03-01T04:40:44.208Z,73.93
2023-03-01T04:43:32.972Z,71.83
2023-03-01T04:46:29.433Z,80.07
2023-03-01T04:49:18.700Z,77.70
2023-03-01T04:52:07.676Z,82.37
2023-03-01T04:54:56.794Z,78.87
2023-03-01T04:57:45.742Z,76.27
2023-03-01T05:00:34.883Z,73.83
2023-03-01T05:03:25.014Z,77.97
2023-03-01T05:06:14.174Z,75.27
2023-03-01T05:09:03.231Z,79.80
2023-03-01T05:11:52.769Z,77.47
2023-03-01T05:14:41.496Z,70.10
2023-03-01T05:17:30.120Z,78.37
2023-03-01T05:20:23.929Z,79.53
2023-03-01T05:23:12.906Z,76.50
2023-03-01T05:26:01.787Z,75.20
2023-03-01T05:28:51.038Z,75.43
2023-03-01T05:31:42.083Z,77.63
2023-03-01T05:34:32.568Z,74.87
2023-03-01T05:37:22.678Z,75.10
2023-03-01T05:40:16.650Z,71.40
2023-03-01T05:43:06.229Z,71.03
2023-03-01T05:45:54.941Z,77.17
2023-03-01T05:48:43.832Z,72.73
2023-03-01T05:51:34.882Z,75.30
2023-03-01T05:54:24.947Z,73.80
2023-03-01T05:57:13.678Z,71.33
2023-03-01T06:00:02.421Z,70.67
2023-03-01T06:03:02.071Z,71.93
2023-03-01T06:05:50.759Z,75.27
2023-03-01T06:08:39.597Z,73.27
2023-03-01T06:11:29.729Z,72.43
2023-03-01T06:14:18.700Z,71.03
2023-03-01T06:17:07.303Z,69.20
2023-03-01T06:19:55.998Z,76.80
2023-03-01T06:22:45.437Z,76.10
2023-03-01T06:25:34.704Z,76.20
2023-03-01T06:28:25.064Z,71.93
2023-03-01T06:31:13.878Z,67.23
2023-03-01T06:34:03.400Z,70.40
2023-03-01T06:36:52.032Z,63.50
2023-03-01T06:39:41.404Z,66.40
2023-03-01T06:42:30.035Z,74.43
2023-03-01T06:45:21.977Z,72.23
2023-03-01T06:48:10.753Z,67.93
2023-03-01T06:51:02.014Z,67.87
2023-03-01T06:53:50.728Z,69.67
2023-03-01T06:56:39.477Z,67.77
2023-03-01T06:59:28.091Z,77.80
2023-03-01T07:02:18.326Z,88.50
2023-03-01T07:05:07.828Z,77.40
2023-03-01T07:07:57.311Z,67.63
2023-03-01T07:10:46.037Z,69.53
2023-03-01T07:13:35.065Z,65.73
2023-03-01T07:16:23.901Z,64.53
2023-03-01T07:19:14.225Z,67.73
2023-03-01T07:22:02.999Z,63.73
2023-03-01T07:24:51.685Z,63.80
2023-03-01T07:27:41.555Z,67.10
2023-03-01T07:30:30.321Z,71.00
2023-03-01T07:33:19.409Z,66.37
2023-03-01T07:36:11.263Z,58.17
2023-03-01T07:39:00.230Z,56.83
2023-03-01T07:41:48.925Z,60.20
2023-03-01T07:44:39.295Z,54.27
2023-03-01T07:47:28.146Z,55.60
2023-03-01T07:50:17.131Z,61.93
2023-03-01T07:53:07.264Z,56.53
2023-03-01T07:56:03.434Z,54.47
2023-03-01T07:58:52.270Z,50.07
2023-03-01T08:01:41.049Z,65.33
2023-03-01T08:04:29.886Z,59.67
2023-03-01T08:07:18.662Z,57.67
2023-03-01T08:10:10.010Z,47.03
2023-03-01T08:12:58.699Z,46.50
2023-03-01T08:15:47.481Z,46.90
2023-03-01T08:18:39.785Z,53.10
2023-03-01T08:21:28.797Z,45.37
2023-03-01T08:24:17.785Z,46.03
2023-03-01T08:27:08.102Z,42.80
2023-03-01T08:29:56.699Z,43.07
2023-03-01T08:32:45.612Z,47.20
2023-03-01T08:35:36.532Z,44.73
2023-03-01T08:38:25.391Z,46.43
2023-03-01T08:41:14.184Z,44.93
2023-03-01T08:44:04.816Z,47.20
2023-03-01T08:46:54.306Z,53.80
2023-03-01T08:49:43.090Z,50.33
2023-03-01T08:52:32.129Z,48.00
2023-03-01T08:55:20.780Z,50.27
2023-03-01T08:58:09.664Z,53.17
2023-03-01T09:00:59.875Z,42.90
2023-03-01T09:03:49.350Z,39.73
2023-03-01T09:06:38.455Z,38.90
2023-03-01T09:09:27.199Z,43.37
2023-03-01T09:12:15.957Z,45.13
2023-03-01T09:15:29.722Z,43.27
2023-03-01T09:18:19.773Z,42.33
2023-03-01T09:21:11.306Z,42.07
2023-03-01T09:24:01.178Z,42.63
2023-03-01T09:26:50.774Z,41.90
2023-03-01T09:32:16.244Z,41.63
2023-03-01T09:35:08.249Z,40.40
2023-03-01T09:37:57.177Z,40.57
2023-03-01T09:40:47.597Z,41.83
2023-03-01T09:43:56.471Z,41.10
2023-03-01T09:46:47.361Z,41.73
2023-03-01T09:49:41.856Z,43.67
2023-03-01T09:52:38.521Z,44.47
2023-03-01T09:55:32.225Z,35.87
2023-03-01T09:58:49.762Z,36.57
2023-03-01T10:01:43.162Z,37.03
2023-03-01T10:04:44.068Z,35.40
2023-03-01T10:07:43.742Z,34.67
2023-03-01T10:10:38.101Z,34.50
2023-03-01T10:13:33.493Z,33.73
2023-03-01T10:16:28.144Z,33.23
2023-03-01T10:19:24.300Z,31.43
2023-03-01T10:22:18.677Z,29.87
2023-03-01T10:25:07.936Z,29.43
2023-03-01T10:28:02.251Z,32.73
2023-03-01T10:30:50.991Z,34.87
2023-03-01T10:33:41.443Z,30.97
2023-03-01T10:36:34.892Z,32.27
2023-03-01T10:39:27.299Z,31.40
2023-03-01T10:42:24.801Z,34.60
2023-03-01T10:45:36.084Z,31.87
2023-03-01T10:48:27.403Z,29.90
2023-03-01T10:51:21.319Z,30.20
2023-03-01T10:54:20.165Z,25.93
2023-03-01T10:57:33.442Z,28.37
2023-03-01T11:00:25.976Z,28.33
2023-03-01T11:03:16.523Z,27.07
2023-03-01T11:06:08.554Z,22.00
2023-03-01T11:08:57.778Z,25.80
2023-03-01T11:11:47.260Z,25.53
2023-03-01T11:14:41.836Z,24.47
2023-03-01T11:17:36.649Z,23.07
2023-03-01T11:20:32.484Z,24.90
2023-03-01T11:23:22.398Z,25.63
2023-03-01T11:26:13.108Z,21.33
2023-03-01T11:29:07.418Z,24.30
2023-03-01T11:32:00.214Z,20.10
2023-03-01T11:34:53.630Z,22.80
2023-03-01T11:37:47.210Z,28.50
2023-03-01T11:40:41.299Z,37.90
2023-03-01T11:43:36.221Z,23.70
2023-03-01T11:46:48.018Z,42.13
2023-03-01T11:50:01.265Z,24.60
2023-03-01T11:53:04.758Z,24.53
2023-03-01T11:56:05.947Z,22.33
2023-03-01T11:59:22.606Z,22.60
2023-03-01T12:02:36.830Z,25.37
2023-03-01T12:06:04.730Z,23.83
2023-03-01T12:09:08.664Z,26.10
2023-03-01T12:12:20.608Z,23.63
2023-03-01T12:15:52.681Z,21.50
2023-03-01T12:19:11.083Z,21.93
2023-03-01T12:22:15.571Z,21.53
2023-03-01T12:25:18.351Z,23.60
2023-03-01T12:28:33.509Z,22.40
2023-03-01T12:31:50.235Z,25.07
2023-03-01T12:35:04.288Z,97.43
2023-03-01T12:38:16.938Z,32.53
2023-03-01T12:41:40.659Z,23.73
2023-03-01T12:44:54.604Z,23.07
2023-03-01T12:47:58.308Z,19.93
2023-03-01T12:50:51.098Z,24.23
2023-03-01T12:53:44.836Z,23.07
2023-03-01T12:56:39.340Z,24.37
2023-03-01T12:59:38.603Z,22.37
2023-03-01T13:02:33.900Z,22.17
2023-03-01T13:05:31.596Z,27.03
2023-03-01T13:08:29.694Z,27.23
2023-03-01T13:11:22.890Z,24.23
2023-03-01T13:14:46.196Z,24.17
2023-03-01T13:17:43.461Z,28.00
2023-03-01T13:20:34.985Z,30.97
2023-03-01T13:23:28.953Z,27.43
2023-03-01T13:26:20.176Z,22.97
2023-03-01T13:29:28.354Z,22.77
2023-03-01T13:32:37.954Z,20.90
2023-03-01T13:35:46.447Z,21.80
2023-03-01T13:38:48.648Z,21.63
2023-03-01T13:41:55.522Z,20.50
2023-03-01T13:44:45.789Z,35.40
2023-03-01T13:47:36.464Z,23.57
2023-03-01T13:50:27.332Z,29.27
2023-03-01T13:53:20.008Z,25.40
2023-03-01T13:56:12.169Z,44.13
2023-03-01T13:59:06.725Z,23.00
2023-03-01T14:01:57.141Z,22.37
2023-03-01T14:04:45.924Z,23.87
2023-03-01T14:07:34.579Z,24.93
2023-03-01T14:10:24.159Z,22.20
2023-03-01T14:13:31.176Z,21.67
2023-03-01T14:16:31.956Z,23.03
2023-03-01T14:19:33.296Z,21.97
2023-03-01T14:22:26.271Z,24.67
2023-03-01T14:25:34.090Z,26.87
2023-03-01T14:28:25.438Z,20.80
2023-03-01T14:31:52.548Z,22.40
2023-03-01T14:34:46.841Z,22.43
2023-03-01T14:37:36.704Z,24.23
2023-03-01T14:40:28.844Z,22.77
2023-03-01T14:43:24.845Z,22.90
2023-03-01T14:46:21.732Z,22.33
2023-03-01T14:49:16.380Z,21.63
2023-03-01T14:52:08.333Z,22.03
2023-03-01T14:54:57.556Z,22.37
2023-03-01T14:57:47.400Z,22.37
2023-03-01T15:00:37.405Z,26.90
2023-03-01T15:03:35.205Z,23.90
2023-03-01T15:06:26.191Z,25.63
2023-03-01T15:09:17.997Z,23.00
2023-03-01T15:12:36.428Z,24.97
2023-03-01T15:15:38.931Z,21.67
2023-03-01T15:18:30.036Z,25.53
2023-03-01T15:21:21.089Z,19.70
2023-03-01T15:24:21.606Z,23.23
2023-03-01T15:27:19.643Z,22.43
2023-03-01T15:30:16.318Z,23.97
2023-03-01T15:33:39.871Z,23.33
2023-03-01T15:36:42.789Z,23.67
2023-03-01T15:39:39.421Z,27.60
2023-03-01T15:42:40.749Z,26.57
2023-03-01T15:45:31.126Z,24.77
2023-03-01T15:48:22.313Z,29.40
2023-03-01T15:51:16.316Z,28.27
2023-03-01T15:54:08.578Z,24.83
2023-03-01T15:56:59.139Z,27.13
2023-03-01T15:59:47.951Z,30.43
2023-03-01T16:02:40.098Z,31.27
2023-03-01T16:05:31.674Z,29.63
2023-03-01T16:08:21.022Z,30.17
2023-03-01T16:11:16.454Z,28.73
2023-03-01T16:14:06.602Z,27.07
2023-03-01T16:16:55.545Z,27.20
2023-03-01T16:19:44.196Z,27.70
2023-03-01T16:22:33.161Z,26.60
2023-03-01T16:25:23.797Z,30.90
2023-03-01T16:28:12.795Z,26.63
2023-03-01T16:31:03.265Z,27.43
2023-03-01T16:33:53.501Z,27.37
2023-03-01T16:36:44.606Z,28.83
2023-03-01T16:39:33.461Z,30.17
2023-03-01T16:42:22.088Z,33.63
2023-03-01T16:45:22.670Z,29.80
2023-03-01T16:48:14.487Z,28.87
2023-03-01T16:51:03.862Z,27.60
2023-03-01T16:53:53.296Z,34.97
2023-03-01T16:56:42.024Z,27.13
2023-03-01T16:59:31.148Z,27.70
2023-03-01T17:02:20.784Z,34.93
2023-03-01T17:05:12.904Z,27.77
2023-03-01T17:08:01.647Z,27.57
2023-03-01T17:10:50.816Z,35.27
2023-03-01T17:13:40.245Z,35.50
2023-03-01T17:16:29.057Z,32.13
2023-03-01T17:19:19.942Z,32.33
2023-03-01T17:22:10.383Z,29.33
2023-03-01T17:24:59.290Z,27.30
2023-03-01T17:27:48.194Z,28.50
2023-03-01T17:30:36.833Z,29.27
2023-03-01T17:33:25.479Z,29.97
2023-03-01T17:36:14.417Z,28.73
2023-03-01T17:39:04.623Z,33.67
2023-03-01T17:41:53.434Z,31.37
2023-03-01T17:44:42.923Z,33.37
2023-03-01T17:47:33.243Z,33.20
2023-03-01T17:50:22.021Z,29.67
2023-03-01T17:53:11.874Z,31.60
2023-03-01T17:56:03.822Z,35.73
2023-03-01T17:58:52.628Z,32.77
2023-03-01T18:01:43.698Z,34.33
2023-03-01T18:04:33.505Z,34.63
2023-03-01T18:07:22.261Z,34.53
2023-03-01T18:10:12.255Z,33.20
2023-03-01T18:13:02.381Z,33.10
2023-03-01T18:15:51.053Z,35.27
2023-03-01T18:18:40.529Z,42.27
2023-03-01T18:21:30.468Z,34.90
2023-03-01T18:24:19.566Z,39.37
2023-03-01T18:27:08.866Z,36.93
2023-03-01T18:29:59.278Z,38.87
2023-03-01T18:32:48.097Z,34.57
2023-03-01T18:35:38.262Z,33.70
2023-03-01T18:38:27.117Z,39.43
2023-03-01T18:41:16.076Z,41.20
2023-03-01T18:44:06.689Z,39.27
2023-03-01T18:46:58.367Z,37.43
2023-03-01T18:49:47.074Z,43.47
2023-03-01T18:52:35.973Z,41.70
2023-03-01T18:55:24.782Z,44.40
2023-03-01T18:58:13.621Z,38.37
2023-03-01T19:01:04.445Z,46.90
2023-03-01T19:03:56.313Z,48.30
2023-03-01T19:06:45.057Z,44.63
2023-03-01T19:09:33.892Z,45.70
2023-03-01T19:12:22.656Z,43.83
2023-03-01T19:15:12.208Z,45.77
2023-03-01T19:18:01.929Z,47.87
2023-03-01T19:21:03.802Z,43.90
2023-03-01T19:23:53.512Z,58.10
2023-03-01T19:26:42.713Z,47.07
2023-03-01T19:29:32.054Z,45.43
2023-03-01T19:32:20.851Z,46.03
2023-03-01T19:35:10.185Z,43.80
2023-03-01T19:38:00.450Z,46.07
2023-03-01T19:40:49.424Z,41.10
2023-03-01T19:43:38.936Z,47.07
2023-03-01T19:46:27.796Z,49.63
2023-03-01T19:49:16.838Z,45.43
2023-03-01T19:52:05.864Z,46.27
2023-03-01T19:55:08.593Z,44.63
2023-03-01T19:57:58.471Z,46.60
2023-03-01T20:00:48.429Z,45.77
2023-03-01T20:03:37.538Z,48.23
2023-03-01T20:06:26.267Z,48.27
2023-03-01T20:09:21.966Z,47.27
2023-03-01T20:12:12.694Z,47.73
2023-03-01T20:15:01.459Z,46.00
2023-03-01T20:17:50.448Z,50.37
2023-03-01T20:20:45.049Z,48.50
2023-03-01T20:23:33.946Z,47.07
2023-03-01T20:26:23.730Z,47.73
2023-03-01T20:29:13.907Z,52.43
2023-03-01T20:32:02.898Z,58.67
2023-03-01T20:34:52.144Z,50.87
2023-03-01T20:37:40.917Z,56.13
2023-03-01T20:40:29.915Z,51.00
2023-03-01T20:43:18.776Z,61.93
2023-03-01T20:46:12.412Z,52.30
2023-03-01T20:49:01.490Z,52.50
2023-03-01T20:51:50.780Z,56.53
2023-03-01T20:54:39.579Z,57.13
2023-03-01T20:57:28.246Z,57.27
2023-03-01T21:00:17.620Z,57.90
2023-03-01T21:03:07.725Z,55.07
2023-03-01T21:05:57.629Z,55.53
2023-03-01T21:08:46.596Z,55.63
2023-03-01T21:11:35.480Z,56.80
2023-03-01T21:14:24.377Z,59.60
2023-03-01T21:17:15.281Z,52.70
2023-03-01T21:20:06.273Z,60.67
2023-03-01T21:22:54.990Z,55.80
2023-03-01T21:25:45.370Z,57.57
2023-03-01T21:28:35.335Z,63.87
2023-03-01T21:31:27.596Z,60.20
2023-03-01T21:34:16.429Z,59.80
2023-03-01T21:37:12.008Z,65.63
2023-03-01T21:40:00.843Z,61.57
2023-03-01T21:42:49.753Z,60.67
2023-03-01T21:45:38.589Z,62.77
2023-03-01T21:48:27.360Z,66.83
2023-03-01T21:51:18.294Z,68.03
2023-03-01T21:54:09.518Z,70.87
2023-03-01T21:56:58.418Z,71.10
2023-03-01T21:59:47.113Z,73.27
2023-03-01T22:02:35.996Z,64.47
2023-03-01T22:05:24.850Z,70.97
2023-03-01T22:08:13.628Z,67.90
2023-03-01T22:11:05.168Z,66.23
2023-03-01T22:13:55.712Z,71.57
2023-03-01T22:16:46.403Z,68.47
2023-03-01T22:19:35.152Z,69.63
2023-03-01T22:22:23.838Z,72.27
2023-03-01T22:25:13.427Z,71.87
2023-03-01T22:28:03.571Z,64.97
2023-03-01T22:30:52.316Z,66.90
2023-03-01T22:33:40.987Z,66.17
2023-03-01T22:36:31.483Z,65.17
2023-03-01T22:39:22.267Z,75.73
2023-03-01T22:42:11.102Z,66.50
2023-03-01T22:45:01.275Z,71.17
2023-03-01T22:47:50.061Z,73.87
2023-03-01T22:50:38.768Z,69.50
2023-03-01T22:53:27.516Z,70.73
2023-03-01T22:56:18.200Z,67.63
2023-03-01T22:59:09.839Z,74.17
2023-03-01T23:02:00.204Z,73.17
2023-03-01T23:04:48.948Z,69.93
2023-03-01T23:07:38.098Z,71.00
2023-03-01T23:10:26.967Z,72.00
2023-03-01T23:13:15.634Z,74.67
2023-03-01T23:16:04.471Z,70.37
2023-03-01T23:18:55.362Z,69.47
2023-03-01T23:21:46.834Z,69.47
2023-03-01T23:24:35.742Z,72.10
2023-03-01T23:27:24.405Z,69.73
2023-03-01T23:30:13.659Z,73.37
2023-03-01T23:33:02.430Z,68.90
2023-03-01T23:35:52.639Z,72.90
2023-03-01T23:38:41.341Z,73.47
2023-03-01T23:41:32.423Z,76.93
2023-03-01T23:44:22.937Z,71.80
2023-03-01T23:47:11.573Z,69.80
2023-03-01T23:50:00.288Z,68.10
2023-03-01T23:52:50.590Z,67.10
2023-03-01T23:55:43.980Z,72.87
2023-03-01T23:58:33.439Z,70.77
